sensor_id;sensor_type;location;lat;lon;timestamp;P1;durP1;ratioP1;P2;durP2;ratioP2
19673;SDS011;9986;50.610;7.230;2022-11-12T00:01:15;11.60;;;9.50;;
19673;SDS011;9986;50.610;7.230;2022-11-12T00:06:25;11.53;;;10.00;;
19673;SDS011;9986;50.610;7.230;2022-11-12T00:08:56;13.20;;;9.93;;
19673;SDS011;9986;50.610;7.230;2022-11-12T00:11:35;12.23;;;9.63;;
19673;SDS011;9986;50.610;7.230;2022-11-12T00:14:13;11.13;;;8.87;;
19673;SDS011;9986;50.610;7.230;2022-11-12T00:16:50;15.40;;;11.03;;
19673;SDS011;9986;50.610;7.230;2022-11-12T00:19:28;15.00;;;10.87;;
19673;SDS011;9986;50.610;7.230;2022-11-12T00:22:12;11.67;;;10.33;;
19673;SDS011;9986;50.610;7.230;2022-11-12T00:24:50;15.17;;;10.63;;
19673;SDS011;9986;50.610;7.230;2022-11-12T00:27:28;15.73;;;11.07;;
19673;SDS011;9986;50.610;7.230;2022-11-12T00:30:11;15.43;;;12.50;;
19673;SDS011;9986;50.610;7.230;2022-11-12T00:32:50;18.60;;;12.93;;
19673;SDS011;9986;50.610;7.230;2022-11-12T00:35:27;18.50;;;13.57;;
19673;SDS011;9986;50.610;7.230;2022-11-12T00:38:06;15.00;;;11.30;;
19673;SDS011;9986;50.610;7.230;2022-11-12T00:40:44;18.07;;;12.57;;
19673;SDS011;9986;50.610;7.230;2022-11-12T00:43:28;17.90;;;12.10;;
19673;SDS011;9986;50.610;7.230;2022-11-12T00:46:06;17.53;;;12.17;;
19673;SDS011;9986;50.610;7.230;2022-11-12T00:48:44;15.93;;;11.80;;
19673;SDS011;9986;50.610;7.230;2022-11-12T00:51:25;18.30;;;12.87;;
19673;SDS011;9986;50.610;7.230;2022-11-12T00:54:03;17.23;;;12.37;;
19673;SDS011;9986;50.610;7.230;2022-11-12T00:56:41;15.67;;;12.00;;
19673;SDS011;9986;50.610;7.230;2022-11-12T00:59:22;17.93;;;13.07;;
19673;SDS011;9986;50.610;7.230;2022-11-12T01:01:59;19.13;;;12.83;;
19673;SDS011;9986;50.610;7.230;2022-11-12T01:04:37;17.43;;;12.40;;
19673;SDS011;9986;50.610;7.230;2022-11-12T01:07:15;19.03;;;12.97;;
19673;SDS011;9986;50.610;7.230;2022-11-12T01:12:23;15.57;;;11.83;;
19673;SDS011;9986;50.610;7.230;2022-11-12T01:15:00;16.57;;;12.33;;
19673;SDS011;9986;50.610;7.230;2022-11-12T01:20:08;15.47;;;11.43;;
19673;SDS011;9986;50.610;7.230;2022-11-12T01:28:00;16.23;;;11.53;;
19673;SDS011;9986;50.610;7.230;2022-11-12T01:30:38;18.30;;;12.63;;
19673;SDS011;9986;50.610;7.230;2022-11-12T01:33:15;23.27;;;13.43;;
19673;SDS011;9986;50.610;7.230;2022-11-12T01:35:53;20.60;;;13.10;;
19673;SDS011;9986;50.610;7.230;2022-11-12T01:38:34;23.77;;;12.77;;
19673;SDS011;9986;50.610;7.230;2022-11-12T01:43:44;18.03;;;12.63;;
19673;SDS011;9986;50.610;7.230;2022-11-12T01:46:26;16.00;;;12.37;;
19673;SDS011;9986;50.610;7.230;2022-11-12T01:49:03;16.00;;;11.83;;
19673;SDS011;9986;50.610;7.230;2022-11-12T01:51:41;19.67;;;13.03;;
19673;SDS011;9986;50.610;7.230;2022-11-12T01:54:20;19.10;;;13.17;;
19673;SDS011;9986;50.610;7.230;2022-11-12T01:56:59;24.37;;;13.10;;
19673;SDS011;9986;50.610;7.230;2022-11-12T01:59:40;24.40;;;12.63;;
19673;SDS011;9986;50.610;7.230;2022-11-12T02:02:28;19.93;;;12.03;;
19673;SDS011;9986;50.610;7.230;2022-11-12T02:05:07;14.67;;;10.93;;
19673;SDS011;9986;50.610;7.230;2022-11-12T02:07:49;18.43;;;12.20;;
19673;SDS011;9986;50.610;7.230;2022-11-12T02:10:29;22.50;;;12.50;;
19673;SDS011;9986;50.610;7.230;2022-11-12T02:13:10;18.37;;;12.13;;
19673;SDS011;9986;50.610;7.230;2022-11-12T02:15:50;14.93;;;10.80;;
19673;SDS011;9986;50.610;7.230;2022-11-12T02:18:29;19.47;;;10.10;;
19673;SDS011;9986;50.610;7.230;2022-11-12T02:21:07;17.67;;;12.07;;
19673;SDS011;9986;50.610;7.230;2022-11-12T02:23:45;16.37;;;10.93;;
19673;SDS011;9986;50.610;7.230;2022-11-12T02:26:23;15.13;;;10.70;;
19673;SDS011;9986;50.610;7.230;2022-11-12T02:29:01;15.87;;;11.30;;
19673;SDS011;9986;50.610;7.230;2022-11-12T02:34:08;19.37;;;12.30;;
19673;SDS011;9986;50.610;7.230;2022-11-12T02:36:46;15.97;;;11.27;;
19673;SDS011;9986;50.610;7.230;2022-11-12T02:39:27;16.83;;;11.40;;
19673;SDS011;9986;50.610;7.230;2022-11-12T02:42:05;14.83;;;10.37;;
19673;SDS011;9986;50.610;7.230;2022-11-12T02:44:46;14.33;;;10.37;;
19673;SDS011;9986;50.610;7.230;2022-11-12T02:47:23;16.10;;;11.47;;
19673;SDS011;9986;50.610;7.230;2022-11-12T02:50:01;17.87;;;11.03;;
19673;SDS011;9986;50.610;7.230;2022-11-12T02:52:39;17.00;;;10.70;;
19673;SDS011;9986;50.610;7.230;2022-11-12T02:55:17;13.90;;;9.83;;
19673;SDS011;9986;50.610;7.230;2022-11-12T02:57:57;18.50;;;10.57;;
19673;SDS011;9986;50.610;7.230;2022-11-12T03:00:34;15.33;;;11.33;;
19673;SDS011;9986;50.610;7.230;2022-11-12T03:03:12;14.03;;;9.67;;
19673;SDS011;9986;50.610;7.230;2022-11-12T03:05:56;13.47;;;9.80;;
19673;SDS011;9986;50.610;7.230;2022-11-12T03:11:14;13.53;;;10.20;;
19673;SDS011;9986;50.610;7.230;2022-11-12T03:13:59;14.47;;;10.50;;
19673;SDS011;9986;50.610;7.230;2022-11-12T03:19:08;14.17;;;10.43;;
19673;SDS011;9986;50.610;7.230;2022-11-12T03:24:16;17.17;;;10.20;;
19673;SDS011;9986;50.610;7.230;2022-11-12T03:29:23;15.37;;;9.97;;
19673;SDS011;9986;50.610;7.230;2022-11-12T03:32:01;13.93;;;9.23;;
19673;SDS011;9986;50.610;7.230;2022-11-12T03:34:40;11.90;;;9.13;;
19673;SDS011;9986;50.610;7.230;2022-11-12T03:37:18;14.00;;;9.27;;
19673;SDS011;9986;50.610;7.230;2022-11-12T03:42:25;12.00;;;9.00;;
19673;SDS011;9986;50.610;7.230;2022-11-12T03:45:06;13.17;;;8.87;;
19673;SDS011;9986;50.610;7.230;2022-11-12T03:47:45;13.67;;;8.03;;
19673;SDS011;9986;50.610;7.230;2022-11-12T03:50:27;13.00;;;8.90;;
19673;SDS011;9986;50.610;7.230;2022-11-12T03:55:34;12.20;;;8.07;;
19673;SDS011;9986;50.610;7.230;2022-11-12T03:58:12;12.17;;;7.93;;
19673;SDS011;9986;50.610;7.230;2022-11-12T04:03:19;12.33;;;8.73;;
19673;SDS011;9986;50.610;7.230;2022-11-12T04:05:57;11.43;;;8.60;;
19673;SDS011;9986;50.610;7.230;2022-11-12T04:08:35;12.87;;;8.60;;
19673;SDS011;9986;50.610;7.230;2022-11-12T04:11:14;12.90;;;8.87;;
19673;SDS011;9986;50.610;7.230;2022-11-12T04:16:25;13.77;;;9.03;;
19673;SDS011;9986;50.610;7.230;2022-11-12T04:19:03;11.20;;;8.07;;
19673;SDS011;9986;50.610;7.230;2022-11-12T04:21:42;11.27;;;8.20;;
19673;SDS011;9986;50.610;7.230;2022-11-12T04:24:26;12.87;;;9.20;;
19673;SDS011;9986;50.610;7.230;2022-11-12T04:27:04;11.43;;;8.63;;
19673;SDS011;9986;50.610;7.230;2022-11-12T04:29:45;12.47;;;8.20;;
19673;SDS011;9986;50.610;7.230;2022-11-12T04:32:24;13.57;;;9.13;;
19673;SDS011;9986;50.610;7.230;2022-11-12T04:35:03;14.63;;;8.80;;
19673;SDS011;9986;50.610;7.230;2022-11-12T04:40:13;9.00;;;7.43;;
19673;SDS011;9986;50.610;7.230;2022-11-12T04:45:50;10.43;;;7.40;;
19673;SDS011;9986;50.610;7.230;2022-11-12T04:48:29;10.40;;;7.60;;
19673;SDS011;9986;50.610;7.230;2022-11-12T04:53:37;11.20;;;7.93;;
19673;SDS011;9986;50.610;7.230;2022-11-12T04:56:14;10.27;;;7.80;;
19673;SDS011;9986;50.610;7.230;2022-11-12T04:58:52;13.20;;;8.90;;
19673;SDS011;9986;50.610;7.230;2022-11-12T05:01:32;11.47;;;8.33;;
19673;SDS011;9986;50.610;7.230;2022-11-12T05:09:31;11.87;;;8.13;;
19673;SDS011;9986;50.610;7.230;2022-11-12T05:12:09;12.17;;;9.07;;
19673;SDS011;9986;50.610;7.230;2022-11-12T05:14:47;12.07;;;9.00;;
19673;SDS011;9986;50.610;7.230;2022-11-12T05:17:31;10.67;;;7.50;;
19673;SDS011;9986;50.610;7.230;2022-11-12T05:20:10;13.50;;;9.00;;
19673;SDS011;9986;50.610;7.230;2022-11-12T05:22:51;12.83;;;8.67;;
19673;SDS011;9986;50.610;7.230;2022-11-12T05:25:37;10.30;;;8.10;;
19673;SDS011;9986;50.610;7.230;2022-11-12T05:28:14;11.27;;;8.37;;
19673;SDS011;9986;50.610;7.230;2022-11-12T05:30:55;11.67;;;7.83;;
19673;SDS011;9986;50.610;7.230;2022-11-12T05:33:33;10.83;;;7.80;;
19673;SDS011;9986;50.610;7.230;2022-11-12T05:38:46;10.43;;;7.80;;
19673;SDS011;9986;50.610;7.230;2022-11-12T05:44:00;13.00;;;8.13;;
19673;SDS011;9986;50.610;7.230;2022-11-12T05:46:38;12.30;;;8.13;;
19673;SDS011;9986;50.610;7.230;2022-11-12T05:49:19;11.07;;;8.33;;
19673;SDS011;9986;50.610;7.230;2022-11-12T05:54:26;11.73;;;8.90;;
19673;SDS011;9986;50.610;7.230;2022-11-12T05:59:33;13.77;;;8.50;;
19673;SDS011;9986;50.610;7.230;2022-11-12T06:02:18;9.90;;;7.47;;
19673;SDS011;9986;50.610;7.230;2022-11-12T06:04:56;12.23;;;8.00;;
19673;SDS011;9986;50.610;7.230;2022-11-12T06:10:10;9.90;;;7.30;;
19673;SDS011;9986;50.610;7.230;2022-11-12T06:12:51;9.00;;;7.37;;
19673;SDS011;9986;50.610;7.230;2022-11-12T06:18:01;10.47;;;6.83;;
19673;SDS011;9986;50.610;7.230;2022-11-12T06:20:39;11.23;;;8.10;;
19673;SDS011;9986;50.610;7.230;2022-11-12T06:23:16;10.83;;;7.77;;
19673;SDS011;9986;50.610;7.230;2022-11-12T06:26:03;11.20;;;7.43;;
19673;SDS011;9986;50.610;7.230;2022-11-12T06:28:41;9.87;;;7.50;;
19673;SDS011;9986;50.610;7.230;2022-11-12T06:31:20;10.50;;;7.63;;
19673;SDS011;9986;50.610;7.230;2022-11-12T06:33:58;7.67;;;6.27;;
19673;SDS011;9986;50.610;7.230;2022-11-12T06:36:38;9.77;;;6.93;;
19673;SDS011;9986;50.610;7.230;2022-11-12T06:39:20;11.87;;;7.77;;
19673;SDS011;9986;50.610;7.230;2022-11-12T06:44:37;9.43;;;7.53;;
19673;SDS011;9986;50.610;7.230;2022-11-12T06:47:15;10.43;;;7.83;;
19673;SDS011;9986;50.610;7.230;2022-11-12T06:49:55;10.40;;;7.73;;
19673;SDS011;9986;50.610;7.230;2022-11-12T06:52:33;11.20;;;8.17;;
19673;SDS011;9986;50.610;7.230;2022-11-12T06:55:12;10.27;;;7.50;;
19673;SDS011;9986;50.610;7.230;2022-11-12T06:57:51;10.33;;;7.87;;
19673;SDS011;9986;50.610;7.230;2022-11-12T07:00:29;10.83;;;7.77;;
19673;SDS011;9986;50.610;7.230;2022-11-12T07:03:07;10.07;;;7.60;;
19673;SDS011;9986;50.610;7.230;2022-11-12T07:05:46;8.30;;;6.43;;
19673;SDS011;9986;50.610;7.230;2022-11-12T07:11:01;9.07;;;6.60;;
19673;SDS011;9986;50.610;7.230;2022-11-12T07:16:10;9.17;;;6.93;;
19673;SDS011;9986;50.610;7.230;2022-11-12T07:18:48;9.93;;;7.00;;
19673;SDS011;9986;50.610;7.230;2022-11-12T07:21:27;9.30;;;7.10;;
19673;SDS011;9986;50.610;7.230;2022-11-12T07:24:05;9.27;;;6.77;;
19673;SDS011;9986;50.610;7.230;2022-11-12T07:26:43;8.80;;;7.03;;
19673;SDS011;9986;50.610;7.230;2022-11-12T07:31:51;9.83;;;6.80;;
19673;SDS011;9986;50.610;7.230;2022-11-12T07:34:28;8.17;;;6.57;;
19673;SDS011;9986;50.610;7.230;2022-11-12T07:37:06;7.80;;;5.80;;
19673;SDS011;9986;50.610;7.230;2022-11-12T07:39:44;11.30;;;7.00;;
19673;SDS011;9986;50.610;7.230;2022-11-12T07:42:24;8.27;;;6.30;;
19673;SDS011;9986;50.610;7.230;2022-11-12T07:47:39;8.57;;;7.03;;
19673;SDS011;9986;50.610;7.230;2022-11-12T07:50:17;9.33;;;7.27;;
19673;SDS011;9986;50.610;7.230;2022-11-12T07:52:57;9.07;;;7.10;;
19673;SDS011;9986;50.610;7.230;2022-11-12T07:58:19;12.27;;;8.43;;
19673;SDS011;9986;50.610;7.230;2022-11-12T08:03:42;13.30;;;9.10;;
19673;SDS011;9986;50.610;7.230;2022-11-12T08:06:29;13.70;;;8.97;;
19673;SDS011;9986;50.610;7.230;2022-11-12T08:09:07;12.17;;;8.97;;
19673;SDS011;9986;50.610;7.230;2022-11-12T08:14:14;13.47;;;9.03;;
19673;SDS011;9986;50.610;7.230;2022-11-12T08:19:24;11.20;;;8.67;;
19673;SDS011;9986;50.610;7.230;2022-11-12T08:22:02;11.90;;;8.80;;
19673;SDS011;9986;50.610;7.230;2022-11-12T08:24:40;14.67;;;9.73;;
19673;SDS011;9986;50.610;7.230;2022-11-12T08:29:47;10.97;;;8.63;;
19673;SDS011;9986;50.610;7.230;2022-11-12T08:32:24;13.37;;;9.37;;
19673;SDS011;9986;50.610;7.230;2022-11-12T08:35:02;14.03;;;10.03;;
19673;SDS011;9986;50.610;7.230;2022-11-12T08:40:12;15.40;;;10.30;;
19673;SDS011;9986;50.610;7.230;2022-11-12T08:42:56;17.37;;;10.13;;
19673;SDS011;9986;50.610;7.230;2022-11-12T08:48:13;16.20;;;11.53;;
19673;SDS011;9986;50.610;7.230;2022-11-12T08:50:51;10.80;;;8.83;;
19673;SDS011;9986;50.610;7.230;2022-11-12T08:53:34;12.63;;;9.30;;
19673;SDS011;9986;50.610;7.230;2022-11-12T08:58:42;15.00;;;10.43;;
19673;SDS011;9986;50.610;7.230;2022-11-12T09:01:20;14.30;;;9.00;;
19673;SDS011;9986;50.610;7.230;2022-11-12T09:04:01;14.60;;;10.10;;
19673;SDS011;9986;50.610;7.230;2022-11-12T09:12:05;14.50;;;9.83;;
19673;SDS011;9986;50.610;7.230;2022-11-12T09:14:45;12.80;;;9.60;;
19673;SDS011;9986;50.610;7.230;2022-11-12T09:20:07;14.13;;;9.43;;
19673;SDS011;9986;50.610;7.230;2022-11-12T09:22:45;14.30;;;10.30;;
19673;SDS011;9986;50.610;7.230;2022-11-12T09:28:05;15.47;;;9.97;;
19673;SDS011;9986;50.610;7.230;2022-11-12T09:30:46;13.53;;;9.80;;
19673;SDS011;9986;50.610;7.230;2022-11-12T09:33:25;13.37;;;9.60;;
19673;SDS011;9986;50.610;7.230;2022-11-12T09:36:03;12.00;;;9.30;;
19673;SDS011;9986;50.610;7.230;2022-11-12T09:38:43;15.33;;;10.63;;
19673;SDS011;9986;50.610;7.230;2022-11-12T09:41:31;12.77;;;9.60;;
19673;SDS011;9986;50.610;7.230;2022-11-12T09:44:10;13.03;;;9.30;;
19673;SDS011;9986;50.610;7.230;2022-11-12T09:46:49;14.20;;;9.73;;
19673;SDS011;9986;50.610;7.230;2022-11-12T09:49:37;13.13;;;10.17;;
19673;SDS011;9986;50.610;7.230;2022-11-12T09:52:18;12.67;;;9.93;;
19673;SDS011;9986;50.610;7.230;2022-11-12T09:54:59;13.50;;;9.10;;
19673;SDS011;9986;50.610;7.230;2022-11-12T09:57:37;10.97;;;8.80;;
19673;SDS011;9986;50.610;7.230;2022-11-12T10:00:18;10.50;;;8.50;;
19673;SDS011;9986;50.610;7.230;2022-11-12T10:02:58;11.80;;;8.83;;
19673;SDS011;9986;50.610;7.230;2022-11-12T10:05:37;11.90;;;8.47;;
19673;SDS011;9986;50.610;7.230;2022-11-12T10:11:00;12.30;;;8.47;;
19673;SDS011;9986;50.610;7.230;2022-11-12T10:16:36;15.53;;;9.03;;
19673;SDS011;9986;50.610;7.230;2022-11-12T10:24:34;13.50;;;9.20;;
19673;SDS011;9986;50.610;7.230;2022-11-12T10:27:14;10.60;;;8.33;;
19673;SDS011;9986;50.610;7.230;2022-11-12T10:29:55;11.23;;;9.03;;
19673;SDS011;9986;50.610;7.230;2022-11-12T10:35:13;12.70;;;8.67;;
19673;SDS011;9986;50.610;7.230;2022-11-12T10:37:53;11.30;;;8.43;;
19673;SDS011;9986;50.610;7.230;2022-11-12T10:40:33;11.77;;;8.50;;
19673;SDS011;9986;50.610;7.230;2022-11-12T10:45:42;13.07;;;8.83;;
19673;SDS011;9986;50.610;7.230;2022-11-12T10:48:24;12.00;;;8.43;;
19673;SDS011;9986;50.610;7.230;2022-11-12T10:53:38;13.30;;;9.30;;
19673;SDS011;9986;50.610;7.230;2022-11-12T10:56:23;10.83;;;8.57;;
19673;SDS011;9986;50.610;7.230;2022-11-12T11:01:53;13.33;;;9.83;;
19673;SDS011;9986;50.610;7.230;2022-11-12T11:04:30;11.47;;;8.70;;
19673;SDS011;9986;50.610;7.230;2022-11-12T11:09:51;13.10;;;9.43;;
19673;SDS011;9986;50.610;7.230;2022-11-12T11:15:07;12.33;;;9.60;;
19673;SDS011;9986;50.610;7.230;2022-11-12T11:17:51;10.50;;;8.30;;
19673;SDS011;9986;50.610;7.230;2022-11-12T11:23:00;11.43;;;9.17;;
19673;SDS011;9986;50.610;7.230;2022-11-12T11:25:39;12.40;;;8.83;;
19673;SDS011;9986;50.610;7.230;2022-11-12T11:28:20;10.90;;;9.17;;
19673;SDS011;9986;50.610;7.230;2022-11-12T11:31:05;13.07;;;8.97;;
19673;SDS011;9986;50.610;7.230;2022-11-12T11:33:50;11.53;;;9.17;;
19673;SDS011;9986;50.610;7.230;2022-11-12T11:36:30;13.47;;;9.57;;
19673;SDS011;9986;50.610;7.230;2022-11-12T11:39:11;12.60;;;8.93;;
19673;SDS011;9986;50.610;7.230;2022-11-12T11:41:52;10.20;;;8.87;;
19673;SDS011;9986;50.610;7.230;2022-11-12T11:44:39;10.13;;;8.53;;
19673;SDS011;9986;50.610;7.230;2022-11-12T11:52:45;17.67;;;12.47;;
19673;SDS011;9986;50.610;7.230;2022-11-12T11:58:18;12.70;;;9.07;;
19673;SDS011;9986;50.610;7.230;2022-11-12T12:01:10;14.37;;;9.30;;
19673;SDS011;9986;50.610;7.230;2022-11-12T12:03:55;10.70;;;9.10;;
19673;SDS011;9986;50.610;7.230;2022-11-12T12:06:40;10.93;;;8.70;;
19673;SDS011;9986;50.610;7.230;2022-11-12T12:09:23;10.90;;;8.87;;
19673;SDS011;9986;50.610;7.230;2022-11-12T12:14:45;9.37;;;8.37;;
19673;SDS011;9986;50.610;7.230;2022-11-12T12:17:34;10.53;;;9.13;;
19673;SDS011;9986;50.610;7.230;2022-11-12T12:20:17;10.93;;;9.40;;
19673;SDS011;9986;50.610;7.230;2022-11-12T12:25:27;9.90;;;8.27;;
19673;SDS011;9986;50.610;7.230;2022-11-12T12:28:07;10.30;;;8.80;;
19673;SDS011;9986;50.610;7.230;2022-11-12T12:36:11;9.27;;;8.33;;
19673;SDS011;9986;50.610;7.230;2022-11-12T12:38:52;10.40;;;8.80;;
19673;SDS011;9986;50.610;7.230;2022-11-12T12:44:09;9.63;;;8.63;;
19673;SDS011;9986;50.610;7.230;2022-11-12T12:46:47;9.57;;;8.57;;
19673;SDS011;9986;50.610;7.230;2022-11-12T12:49:28;9.37;;;8.37;;
19673;SDS011;9986;50.610;7.230;2022-11-12T12:52:09;10.50;;;8.87;;
19673;SDS011;9986;50.610;7.230;2022-11-12T13:06:04;9.73;;;7.90;;
19673;SDS011;9986;50.610;7.230;2022-11-12T13:17:46;8.40;;;6.77;;
19673;SDS011;9986;50.610;7.230;2022-11-12T13:20:33;6.50;;;5.90;;
19673;SDS011;9986;50.610;7.230;2022-11-12T13:32:32;8.63;;;7.77;;
19673;SDS011;9986;50.610;7.230;2022-11-12T13:35:27;8.47;;;7.53;;
19673;SDS011;9986;50.610;7.230;2022-11-12T13:38:11;8.00;;;7.20;;
19673;SDS011;9986;50.610;7.230;2022-11-12T13:40:50;8.97;;;7.37;;
19673;SDS011;9986;50.610;7.230;2022-11-12T13:46:25;8.70;;;7.47;;
19673;SDS011;9986;50.610;7.230;2022-11-12T13:49:04;8.13;;;7.33;;
19673;SDS011;9986;50.610;7.230;2022-11-12T13:51:45;9.57;;;7.60;;
19673;SDS011;9986;50.610;7.230;2022-11-12T13:54:25;7.50;;;6.80;;
19673;SDS011;9986;50.610;7.230;2022-11-12T14:02:43;10.07;;;8.90;;
19673;SDS011;9986;50.610;7.230;2022-11-12T14:08:20;9.67;;;8.57;;
19673;SDS011;9986;50.610;7.230;2022-11-12T14:13:40;9.27;;;7.40;;
19673;SDS011;9986;50.610;7.230;2022-11-12T14:19:28;8.73;;;7.73;;
19673;SDS011;9986;50.610;7.230;2022-11-12T14:24:58;11.03;;;9.20;;
19673;SDS011;9986;50.610;7.230;2022-11-12T14:27:38;9.27;;;7.10;;
19673;SDS011;9986;50.610;7.230;2022-11-12T14:30:19;9.80;;;7.97;;
19673;SDS011;9986;50.610;7.230;2022-11-12T14:32:59;9.67;;;7.80;;
19673;SDS011;9986;50.610;7.230;2022-11-12T14:35:38;10.37;;;7.80;;
19673;SDS011;9986;50.610;7.230;2022-11-12T14:38:16;9.17;;;8.00;;
19673;SDS011;9986;50.610;7.230;2022-11-12T14:40:57;9.73;;;8.10;;
19673;SDS011;9986;50.610;7.230;2022-11-12T14:46:18;11.40;;;8.37;;
19673;SDS011;9986;50.610;7.230;2022-11-12T14:49:03;10.87;;;9.23;;
19673;SDS011;9986;50.610;7.230;2022-11-12T14:51:43;8.93;;;7.77;;
19673;SDS011;9986;50.610;7.230;2022-11-12T14:54:24;9.73;;;8.23;;
19673;SDS011;9986;50.610;7.230;2022-11-12T14:57:01;9.83;;;8.07;;
19673;SDS011;9986;50.610;7.230;2022-11-12T14:59:35;10.83;;;8.40;;
19673;SDS011;9986;50.610;7.230;2022-11-12T15:02:13;9.70;;;7.60;;
19673;SDS011;9986;50.610;7.230;2022-11-12T15:04:59;9.73;;;8.27;;
19673;SDS011;9986;50.610;7.230;2022-11-12T15:10:35;10.23;;;8.30;;
19673;SDS011;9986;50.610;7.230;2022-11-12T15:13:14;8.93;;;7.47;;
19673;SDS011;9986;50.610;7.230;2022-11-12T15:21:05;9.33;;;8.07;;
19673;SDS011;9986;50.610;7.230;2022-11-12T15:29:14;8.00;;;7.20;;
19673;SDS011;9986;50.610;7.230;2022-11-12T15:34:26;7.43;;;6.63;;
19673;SDS011;9986;50.610;7.230;2022-11-12T15:37:10;7.10;;;5.97;;
19673;SDS011;9986;50.610;7.230;2022-11-12T15:39:50;7.87;;;7.07;;
19673;SDS011;9986;50.610;7.230;2022-11-12T15:42:29;10.20;;;7.47;;
19673;SDS011;9986;50.610;7.230;2022-11-12T15:45:21;8.63;;;7.30;;
19673;SDS011;9986;50.610;7.230;2022-11-12T15:53:13;12.50;;;8.63;;
19673;SDS011;9986;50.610;7.230;2022-11-12T15:55:52;8.47;;;7.33;;
19673;SDS011;9986;50.610;7.230;2022-11-12T16:01:00;11.17;;;7.23;;
19673;SDS011;9986;50.610;7.230;2022-11-12T16:03:39;8.70;;;6.90;;
19673;SDS011;9986;50.610;7.230;2022-11-12T16:06:20;9.37;;;7.27;;
19673;SDS011;9986;50.610;7.230;2022-11-12T16:08:58;8.87;;;7.50;;
19673;SDS011;9986;50.610;7.230;2022-11-12T16:11:42;9.73;;;7.63;;
19673;SDS011;9986;50.610;7.230;2022-11-12T16:14:20;10.73;;;7.20;;
19673;SDS011;9986;50.610;7.230;2022-11-12T16:16:57;10.63;;;8.10;;
19673;SDS011;9986;50.610;7.230;2022-11-12T16:19:35;8.33;;;7.27;;
19673;SDS011;9986;50.610;7.230;2022-11-12T16:22:26;8.50;;;7.57;;
19673;SDS011;9986;50.610;7.230;2022-11-12T16:25:04;7.97;;;7.17;;
19673;SDS011;9986;50.610;7.230;2022-11-12T16:30:20;7.57;;;6.77;;
19673;SDS011;9986;50.610;7.230;2022-11-12T16:32:59;9.63;;;7.20;;
19673;SDS011;9986;50.610;7.230;2022-11-12T16:35:37;11.87;;;6.70;;
19673;SDS011;9986;50.610;7.230;2022-11-12T16:38:16;11.00;;;7.47;;
19673;SDS011;9986;50.610;7.230;2022-11-12T16:40:54;11.33;;;7.87;;
19673;SDS011;9986;50.610;7.230;2022-11-12T16:43:33;8.57;;;7.67;;
19673;SDS011;9986;50.610;7.230;2022-11-12T16:46:15;9.00;;;8.10;;
19673;SDS011;9986;50.610;7.230;2022-11-12T16:51:26;8.77;;;7.70;;
19673;SDS011;9986;50.610;7.230;2022-11-12T16:54:04;8.50;;;7.60;;
19673;SDS011;9986;50.610;7.230;2022-11-12T16:56:43;8.93;;;8.03;;
19673;SDS011;9986;50.610;7.230;2022-11-12T16:59:21;8.97;;;8.07;;
19673;SDS011;9986;50.610;7.230;2022-11-12T17:01:59;9.53;;;8.50;;
19673;SDS011;9986;50.610;7.230;2022-11-12T17:04:37;10.13;;;8.40;;
19673;SDS011;9986;50.610;7.230;2022-11-12T17:07:15;9.83;;;7.63;;
19673;SDS011;9986;50.610;7.230;2022-11-12T17:12:30;9.23;;;7.70;;
19673;SDS011;9986;50.610;7.230;2022-11-12T17:15:10;8.70;;;7.13;;
19673;SDS011;9986;50.610;7.230;2022-11-12T17:17:48;9.10;;;7.40;;
19673;SDS011;9986;50.610;7.230;2022-11-12T17:23:04;9.83;;;8.83;;
19673;SDS011;9986;50.610;7.230;2022-11-12T17:25:42;9.43;;;8.37;;
19673;SDS011;9986;50.610;7.230;2022-11-12T17:28:19;10.57;;;7.97;;
19673;SDS011;9986;50.610;7.230;2022-11-12T17:33:26;9.80;;;7.80;;
19673;SDS011;9986;50.610;7.230;2022-11-12T17:38:41;10.73;;;7.87;;
19673;SDS011;9986;50.610;7.230;2022-11-12T17:43:51;12.83;;;10.37;;
19673;SDS011;9986;50.610;7.230;2022-11-12T17:46:32;10.17;;;8.87;;
19673;SDS011;9986;50.610;7.230;2022-11-12T17:49:10;12.97;;;9.00;;
19673;SDS011;9986;50.610;7.230;2022-11-12T17:51:48;15.13;;;10.43;;
19673;SDS011;9986;50.610;7.230;2022-11-12T17:56:55;11.17;;;9.40;;
19673;SDS011;9986;50.610;7.230;2022-11-12T18:02:02;11.70;;;9.03;;
19673;SDS011;9986;50.610;7.230;2022-11-12T18:07:22;12.17;;;9.03;;
19673;SDS011;9986;50.610;7.230;2022-11-12T18:10:02;9.23;;;8.30;;
19673;SDS011;9986;50.610;7.230;2022-11-12T18:12:46;9.60;;;8.27;;
19673;SDS011;9986;50.610;7.230;2022-11-12T18:15:24;9.00;;;8.10;;
19673;SDS011;9986;50.610;7.230;2022-11-12T18:18:02;11.73;;;7.90;;
19673;SDS011;9986;50.610;7.230;2022-11-12T18:23:16;9.67;;;8.63;;
19673;SDS011;9986;50.610;7.230;2022-11-12T18:25:54;12.30;;;8.20;;
19673;SDS011;9986;50.610;7.230;2022-11-12T18:31:04;9.87;;;7.97;;
19673;SDS011;9986;50.610;7.230;2022-11-12T18:33:48;12.70;;;8.07;;
19673;SDS011;9986;50.610;7.230;2022-11-12T18:36:26;9.30;;;8.27;;
19673;SDS011;9986;50.610;7.230;2022-11-12T18:41:40;9.33;;;7.80;;
19673;SDS011;9986;50.610;7.230;2022-11-12T18:44:18;8.97;;;7.37;;
19673;SDS011;9986;50.610;7.230;2022-11-12T18:46:57;9.07;;;7.33;;
19673;SDS011;9986;50.610;7.230;2022-11-12T18:49:35;9.30;;;7.70;;
19673;SDS011;9986;50.610;7.230;2022-11-12T18:52:13;8.73;;;7.13;;
19673;SDS011;9986;50.610;7.230;2022-11-12T18:54:52;8.57;;;7.67;;
19673;SDS011;9986;50.610;7.230;2022-11-12T18:57:32;10.03;;;8.27;;
19673;SDS011;9986;50.610;7.230;2022-11-12T19:00:12;8.77;;;7.80;;
19673;SDS011;9986;50.610;7.230;2022-11-12T19:05:20;9.60;;;7.40;;
19673;SDS011;9986;50.610;7.230;2022-11-12T19:07:58;15.40;;;9.83;;
19673;SDS011;9986;50.610;7.230;2022-11-12T19:10:36;20.93;;;15.53;;
19673;SDS011;9986;50.610;7.230;2022-11-12T19:13:13;12.93;;;8.97;;
19673;SDS011;9986;50.610;7.230;2022-11-12T19:15:51;10.77;;;8.07;;
19673;SDS011;9986;50.610;7.230;2022-11-12T19:18:29;14.17;;;9.80;;
19673;SDS011;9986;50.610;7.230;2022-11-12T19:21:07;19.47;;;14.97;;
19673;SDS011;9986;50.610;7.230;2022-11-12T19:23:48;10.57;;;9.03;;
19673;SDS011;9986;50.610;7.230;2022-11-12T19:26:29;11.83;;;9.00;;
19673;SDS011;9986;50.610;7.230;2022-11-12T19:29:07;13.67;;;9.00;;
19673;SDS011;9986;50.610;7.230;2022-11-12T19:31:44;10.17;;;8.50;;
19673;SDS011;9986;50.610;7.230;2022-11-12T19:37:01;10.67;;;8.17;;
19673;SDS011;9986;50.610;7.230;2022-11-12T19:42:09;9.77;;;8.27;;
19673;SDS011;9986;50.610;7.230;2022-11-12T19:44:48;12.57;;;9.37;;
19673;SDS011;9986;50.610;7.230;2022-11-12T19:47:26;10.63;;;9.53;;
19673;SDS011;9986;50.610;7.230;2022-11-12T19:50:04;9.13;;;8.10;;
19673;SDS011;9986;50.610;7.230;2022-11-12T19:52:49;7.80;;;7.00;;
19673;SDS011;9986;50.610;7.230;2022-11-12T19:55:28;8.87;;;7.97;;
19673;SDS011;9986;50.610;7.230;2022-11-12T19:58:07;10.07;;;8.17;;
19673;SDS011;9986;50.610;7.230;2022-11-12T20:03:30;8.63;;;6.90;;
19673;SDS011;9986;50.610;7.230;2022-11-12T20:06:08;11.67;;;8.77;;
19673;SDS011;9986;50.610;7.230;2022-11-12T20:08:46;10.47;;;8.60;;
19673;SDS011;9986;50.610;7.230;2022-11-12T20:11:24;10.60;;;8.73;;
19673;SDS011;9986;50.610;7.230;2022-11-12T20:16:40;9.53;;;8.30;;
19673;SDS011;9986;50.610;7.230;2022-11-12T20:21:47;11.67;;;8.67;;
19673;SDS011;9986;50.610;7.230;2022-11-12T20:24:25;9.73;;;8.47;;
19673;SDS011;9986;50.610;7.230;2022-11-12T20:27:02;11.67;;;9.10;;
19673;SDS011;9986;50.610;7.230;2022-11-12T20:32:21;10.63;;;8.87;;
19673;SDS011;9986;50.610;7.230;2022-11-12T20:34:59;10.17;;;8.60;;
19673;SDS011;9986;50.610;7.230;2022-11-12T20:37:37;9.23;;;7.90;;
19673;SDS011;9986;50.610;7.230;2022-11-12T20:42:48;10.00;;;8.50;;
19673;SDS011;9986;50.610;7.230;2022-11-12T20:45:25;11.00;;;8.67;;
19673;SDS011;9986;50.610;7.230;2022-11-12T20:50:33;11.23;;;8.53;;
19673;SDS011;9986;50.610;7.230;2022-11-12T20:53:10;9.63;;;8.60;;
19673;SDS011;9986;50.610;7.230;2022-11-12T20:55:49;9.60;;;8.60;;